9 a 16/3 - Continuidad tiempo caluroso N y centro-N, inestable centro


Avatar de Usuario
Diecha
Mensajes: 11037
Registrado: Jue Ago 25, 2011 9:31 pm
Ubicación: Lomas de Zamora

Re: 9 a 16/3 - Continuidad tiempo caluroso N y centro-N, inestable centro

Mensaje por Diecha » Sab Mar 14, 2020 6:33 pm

Imagen

Imagen
Spoiler
Mostrar
Imagen
Imagen
Imagen
Imagen
Imagen
Imagen
Imagen
Imagen
Imagen
Imagen
Imagen
Imagen
Imagen
Imagen
Imagen
Imagen
Última edición por Diecha el Sab Mar 14, 2020 9:37 pm, editado 2 veces en total.

Avatar de Usuario
Diecha
Mensajes: 11037
Registrado: Jue Ago 25, 2011 9:31 pm
Ubicación: Lomas de Zamora

Re: 9 a 16/3 - Continuidad tiempo caluroso N y centro-N, inestable centro

Mensaje por Diecha » Sab Mar 14, 2020 6:50 pm

Imagen
Imagen

Avatar de Usuario
Ale de Castelar
Mensajes: 25156
Registrado: Sab Mar 03, 2012 12:25 pm
Ubicación: Caballito

Re: 9 a 16/3 - Continuidad tiempo caluroso N y centro-N, inestable centro

Mensaje por Ale de Castelar » Sab Mar 14, 2020 7:19 pm

Tremendo

Avatar de Usuario
Diecha
Mensajes: 11037
Registrado: Jue Ago 25, 2011 9:31 pm
Ubicación: Lomas de Zamora

Re: 9 a 16/3 - Continuidad tiempo caluroso N y centro-N, inestable centro

Mensaje por Diecha » Sab Mar 14, 2020 7:27 pm

- Rosario 19 hs: SAAR 142200Z 14013KT 9999 SCT015 BKN025 OVC100 23/20 Q1013
- Junín 19 hs: SAAJ 142200Z 20004KT 7000 -RA SCT035 FEW045TCU BKN050 18/17 Q1014 RETS

Imagen
Imagen
Imagen

- San Fernando 19 hs: SADF 142200Z 20005KT 9000 SCT012 OVC100 21/20 Q1014
- Aeroparque 19 hs: SABE 142200Z 18004KT 140V250 9999 SCT012 BKN023 BKN100 21/19 Q1014
- Ezeiza 19 hs: SAEZ 142200Z 18006KT 9999 BKN009 OVC100 20/19 Q1014

Imagen

Avatar de Usuario
pupy
Mensajes: 2363
Registrado: Mar Mar 02, 2010 7:15 pm
Ubicación: Cordoba capital

Re: 9 a 16/3 - Continuidad tiempo caluroso N y centro-N, inestable centro

Mensaje por pupy » Sab Mar 14, 2020 7:36 pm

Cordoba capital Nublado, ambiente fresco a frio, T 20 C Viento Sur 20km/h

Avatar de Usuario
maxi_rosario_eche21
Mensajes: 9402
Registrado: Mié Sep 23, 2009 1:55 am
Ubicación: Rosario, Argentina
Contactar:

Re: 9 a 16/3 - Continuidad tiempo caluroso N y centro-N, inestable centro

Mensaje por maxi_rosario_eche21 » Sab Mar 14, 2020 8:44 pm

Mmmmm... Ese meso que se esta formando en SDE no me gusta nada.

Avatar de Usuario
Gastii1648
Mensajes: 316
Registrado: Vie Abr 05, 2019 10:26 pm
Ubicación: Rincón de Milberg, Tigre - GBA Norte

Re: 9 a 16/3 - Continuidad tiempo caluroso N y centro-N, inestable centro

Mensaje por Gastii1648 » Sab Mar 14, 2020 9:23 pm

19,7°C/24,8°C fueron los Extremos de hoy según el sensor externo de la mini estación meteorológica que está puesto en el patio de mí casa

San Fernando: 20,0°C/27,0°C
OCBA: 20,0°C/27,8°C
Aeroparque: 19,8°C/26,9°C
Ezeiza: 19,0°C/28,0°C
La Plata: 18,7°C/26,2°C
Yo Tengo un pluviómetro que tiene una capacidad para 75 mm. :roll:

Avatar de Usuario
Diecha
Mensajes: 11037
Registrado: Jue Ago 25, 2011 9:31 pm
Ubicación: Lomas de Zamora

Re: 9 a 16/3 - Continuidad tiempo caluroso N y centro-N, inestable centro

Mensaje por Diecha » Sab Mar 14, 2020 9:36 pm

Imagen

Imagen
Spoiler
Mostrar
Imagen
Imagen
Imagen
Imagen
Imagen
Imagen
Imagen
Imagen
Imagen
Imagen
Imagen
Imagen
Imagen
Imagen
Última edición por Diecha el Dom Mar 15, 2020 3:33 am, editado 1 vez en total.

Avatar de Usuario
Ezequiel1995
Mensajes: 1071
Registrado: Mar Nov 12, 2019 4:50 pm
Ubicación: Merlo, Buenos Aires
Contactar:

Re: 9 a 16/3 - Continuidad tiempo caluroso N y centro-N, inestable centro

Mensaje por Ezequiel1995 » Sab Mar 14, 2020 9:55 pm

Hay nubosidad al NO de la provincia de Buenos Aires, yo creo que si van a ligar, nosotros también, pero muy "border"

Responder